sensor_id;sensor_type;location;lat;lon;timestamp;P1;durP1;ratioP1;P2;durP2;ratioP2
15151;SDS011;7676;50.900;6.234;2023-06-01T00:02:46;5.90;;;3.57;;
15151;SDS011;7676;50.900;6.234;2023-06-01T00:17:48;5.87;;;3.23;;
15151;SDS011;7676;50.900;6.234;2023-06-01T00:32:53;5.27;;;3.77;;
15151;SDS011;7676;50.900;6.234;2023-06-01T00:47:56;6.23;;;4.33;;
15151;SDS011;7676;50.900;6.234;2023-06-01T01:02:59;7.37;;;4.97;;
15151;SDS011;7676;50.900;6.234;2023-06-01T01:33:40;9.77;;;6.07;;
15151;SDS011;7676;50.900;6.234;2023-06-01T01:48:51;10.43;;;6.93;;
15151;SDS011;7676;50.900;6.234;2023-06-01T02:04:09;9.87;;;7.20;;
15151;SDS011;7676;50.900;6.234;2023-06-01T02:19:12;12.97;;;9.67;;
15151;SDS011;7676;50.900;6.234;2023-06-01T02:34:18;10.53;;;8.17;;
15151;SDS011;7676;50.900;6.234;2023-06-01T02:49:22;10.67;;;9.00;;
15151;SDS011;7676;50.900;6.234;2023-06-01T03:04:24;15.50;;;10.27;;
15151;SDS011;7676;50.900;6.234;2023-06-01T03:19:31;15.50;;;10.67;;
15151;SDS011;7676;50.900;6.234;2023-06-01T03:34:37;13.37;;;11.00;;
15151;SDS011;7676;50.900;6.234;2023-06-01T03:49:42;18.13;;;13.33;;
15151;SDS011;7676;50.900;6.234;2023-06-01T04:04:46;18.97;;;13.60;;
15151;SDS011;7676;50.900;6.234;2023-06-01T04:19:48;17.43;;;13.27;;
15151;SDS011;7676;50.900;6.234;2023-06-01T04:34:51;19.37;;;13.67;;
15151;SDS011;7676;50.900;6.234;2023-06-01T04:49:57;24.63;;;17.70;;
15151;SDS011;7676;50.900;6.234;2023-06-01T05:05:00;42.83;;;29.83;;
15151;SDS011;7676;50.900;6.234;2023-06-01T05:20:02;61.87;;;36.67;;
15151;SDS011;7676;50.900;6.234;2023-06-01T05:35:06;80.23;;;42.87;;
15151;SDS011;7676;50.900;6.234;2023-06-01T05:50:10;81.20;;;47.20;;
15151;SDS011;7676;50.900;6.234;2023-06-01T06:05:12;78.93;;;46.53;;
15151;SDS011;7676;50.900;6.234;2023-06-01T06:20:17;72.47;;;41.83;;
15151;SDS011;7676;50.900;6.234;2023-06-01T06:35:23;52.93;;;33.43;;
15151;SDS011;7676;50.900;6.234;2023-06-01T06:50:26;42.67;;;29.67;;
15151;SDS011;7676;50.900;6.234;2023-06-01T07:05:29;39.30;;;28.97;;
15151;SDS011;7676;50.900;6.234;2023-06-01T07:20:32;37.73;;;28.23;;
15151;SDS011;7676;50.900;6.234;2023-06-01T07:35:34;30.73;;;24.47;;
15151;SDS011;7676;50.900;6.234;2023-06-01T07:50:37;31.30;;;23.47;;
15151;SDS011;7676;50.900;6.234;2023-06-01T08:05:40;24.93;;;19.00;;
15151;SDS011;7676;50.900;6.234;2023-06-01T08:20:46;22.60;;;17.83;;
15151;SDS011;7676;50.900;6.234;2023-06-01T08:35:51;25.27;;;19.03;;
15151;SDS011;7676;50.900;6.234;2023-06-01T08:50:53;20.30;;;17.00;;
15151;SDS011;7676;50.900;6.234;2023-06-01T09:05:58;17.93;;;13.97;;
15151;SDS011;7676;50.900;6.234;2023-06-01T09:21:13;15.30;;;12.77;;
15151;SDS011;7676;50.900;6.234;2023-06-01T09:36:26;12.50;;;10.13;;
15151;SDS011;7676;50.900;6.234;2023-06-01T09:51:28;16.80;;;12.77;;
15151;SDS011;7676;50.900;6.234;2023-06-01T10:06:33;12.93;;;10.57;;
15151;SDS011;7676;50.900;6.234;2023-06-01T10:21:40;11.93;;;10.03;;
15151;SDS011;7676;50.900;6.234;2023-06-01T11:07:34;12.57;;;10.63;;
15151;SDS011;7676;50.900;6.234;2023-06-01T11:22:44;12.60;;;9.77;;
15151;SDS011;7676;50.900;6.234;2023-06-01T11:37:52;11.83;;;10.37;;
15151;SDS011;7676;50.900;6.234;2023-06-01T11:52:55;10.17;;;9.13;;
15151;SDS011;7676;50.900;6.234;2023-06-01T12:07:58;12.43;;;10.07;;
15151;SDS011;7676;50.900;6.234;2023-06-01T12:23:15;12.50;;;9.70;;
15151;SDS011;7676;50.900;6.234;2023-06-01T12:38:18;9.83;;;7.70;;
15151;SDS011;7676;50.900;6.234;2023-06-01T12:53:24;12.27;;;9.73;;
15151;SDS011;7676;50.900;6.234;2023-06-01T13:08:26;10.33;;;8.00;;
15151;SDS011;7676;50.900;6.234;2023-06-01T13:23:30;9.03;;;6.47;;
15151;SDS011;7676;50.900;6.234;2023-06-01T13:38:32;9.13;;;7.33;;
15151;SDS011;7676;50.900;6.234;2023-06-01T13:53:35;8.03;;;7.10;;
15151;SDS011;7676;50.900;6.234;2023-06-01T14:08:37;7.87;;;6.87;;
15151;SDS011;7676;50.900;6.234;2023-06-01T14:23:40;9.53;;;6.70;;
15151;SDS011;7676;50.900;6.234;2023-06-01T14:38:45;9.43;;;6.40;;
15151;SDS011;7676;50.900;6.234;2023-06-01T14:53:48;7.23;;;5.73;;
15151;SDS011;7676;50.900;6.234;2023-06-01T15:08:51;9.33;;;6.43;;
15151;SDS011;7676;50.900;6.234;2023-06-01T15:23:53;7.03;;;5.77;;
15151;SDS011;7676;50.900;6.234;2023-06-01T15:38:56;8.37;;;6.67;;
15151;SDS011;7676;50.900;6.234;2023-06-01T15:58:16;7.90;;;5.57;;
15151;SDS011;7676;50.900;6.234;2023-06-01T16:13:19;7.90;;;5.87;;
15151;SDS011;7676;50.900;6.234;2023-06-01T16:28:22;6.90;;;5.00;;
15151;SDS011;7676;50.900;6.234;2023-06-01T16:43:24;7.37;;;5.40;;
15151;SDS011;7676;50.900;6.234;2023-06-01T16:58:27;8.63;;;5.37;;
15151;SDS011;7676;50.900;6.234;2023-06-01T17:13:30;8.63;;;4.87;;
15151;SDS011;7676;50.900;6.234;2023-06-01T17:28:35;5.67;;;4.93;;
15151;SDS011;7676;50.900;6.234;2023-06-01T17:43:38;8.57;;;4.50;;
15151;SDS011;7676;50.900;6.234;2023-06-01T17:58:41;10.03;;;5.10;;
15151;SDS011;7676;50.900;6.234;2023-06-01T18:13:44;6.83;;;5.00;;
15151;SDS011;7676;50.900;6.234;2023-06-01T18:28:47;9.77;;;5.60;;
15151;SDS011;7676;50.900;6.234;2023-06-01T18:43:53;7.47;;;5.90;;
15151;SDS011;7676;50.900;6.234;2023-06-01T18:58:56;8.20;;;6.23;;
15151;SDS011;7676;50.900;6.234;2023-06-01T19:14:00;8.27;;;6.43;;
15151;SDS011;7676;50.900;6.234;2023-06-01T19:29:06;12.03;;;6.63;;
15151;SDS011;7676;50.900;6.234;2023-06-01T19:44:15;7.47;;;5.73;;
15151;SDS011;7676;50.900;6.234;2023-06-01T19:59:22;8.30;;;6.13;;
15151;SDS011;7676;50.900;6.234;2023-06-01T20:14:28;11.27;;;6.77;;
15151;SDS011;7676;50.900;6.234;2023-06-01T20:29:34;8.77;;;6.50;;
15151;SDS011;7676;50.900;6.234;2023-06-01T20:44:38;7.73;;;5.67;;
15151;SDS011;7676;50.900;6.234;2023-06-01T20:59:41;10.83;;;6.13;;
15151;SDS011;7676;50.900;6.234;2023-06-01T21:14:43;9.33;;;6.77;;
15151;SDS011;7676;50.900;6.234;2023-06-01T21:29:46;7.00;;;5.73;;
15151;SDS011;7676;50.900;6.234;2023-06-01T21:44:54;10.10;;;6.87;;
15151;SDS011;7676;50.900;6.234;2023-06-01T21:59:57;8.20;;;6.87;;
15151;SDS011;7676;50.900;6.234;2023-06-01T22:15:04;9.90;;;7.20;;
15151;SDS011;7676;50.900;6.234;2023-06-01T22:30:08;9.07;;;6.97;;
15151;SDS011;7676;50.900;6.234;2023-06-01T22:45:14;7.70;;;6.73;;
15151;SDS011;7676;50.900;6.234;2023-06-01T23:00:17;10.77;;;6.80;;
15151;SDS011;7676;50.900;6.234;2023-06-01T23:15:21;8.87;;;6.47;;
15151;SDS011;7676;50.900;6.234;2023-06-01T23:30:26;8.27;;;6.00;;
15151;SDS011;7676;50.900;6.234;2023-06-01T23:45:29;10.60;;;7.07;;
